createdAt,value
2023-03-22T00:12:38.451Z,7.81
2023-03-22T00:32:38.420Z,8.10
2023-03-22T00:52:38.497Z,8.06
2023-03-22T01:12:38.397Z,8.13
2023-03-22T01:32:38.383Z,8.20
2023-03-22T01:52:38.293Z,8.08
2023-03-22T02:12:38.278Z,7.99
2023-03-22T02:32:38.286Z,7.69
2023-03-22T02:52:38.279Z,7.20
2023-03-22T03:12:38.300Z,7.30
2023-03-22T03:32:38.312Z,7.50
2023-03-22T03:52:38.366Z,7.57
2023-03-22T04:12:38.308Z,7.36
2023-03-22T04:32:38.339Z,7.02
2023-03-22T04:52:38.270Z,6.66
2023-03-22T05:12:38.216Z,6.42
2023-03-22T05:32:38.207Z,6.42
2023-03-22T05:52:38.214Z,6.80
2023-03-22T06:12:38.327Z,7.14
2023-03-22T06:32:38.264Z,7.46
2023-03-22T06:52:38.301Z,7.99
2023-03-22T07:12:38.245Z,8.73
2023-03-22T07:32:38.231Z,9.41
2023-03-22T07:52:38.308Z,9.70
2023-03-22T08:12:38.183Z,10.10
2023-03-22T08:32:38.208Z,10.84
2023-03-22T08:52:38.187Z,11.45
2023-03-22T09:12:38.164Z,12.41
2023-03-22T09:32:39.036Z,13.22
2023-03-22T09:52:38.077Z,13.89
2023-03-22T10:12:38.084Z,14.04
2023-03-22T10:32:38.150Z,15.37
2023-03-22T10:52:37.991Z,14.69
2023-03-22T11:12:38.051Z,16.04
2023-03-22T11:32:38.228Z,16.12
2023-03-22T11:52:38.017Z,15.99
2023-03-22T12:12:37.932Z,16.23
2023-03-22T12:32:37.943Z,15.62
2023-03-22T12:52:37.863Z,15.80
2023-03-22T13:12:37.876Z,15.35
2023-03-22T13:32:37.893Z,15.88
2023-03-22T13:52:37.810Z,16.25
2023-03-22T14:12:37.823Z,16.58
2023-03-22T14:52:37.725Z,16.67
2023-03-22T15:12:37.736Z,15.41
2023-03-22T15:32:37.893Z,14.74
2023-03-22T15:52:37.955Z,14.83
2023-03-22T16:12:37.830Z,14.73
2023-03-22T16:32:37.826Z,14.13
2023-03-22T16:52:37.644Z,13.42
2023-03-22T17:12:37.844Z,13.21
2023-03-22T17:32:37.731Z,13.10
2023-03-22T17:52:37.750Z,12.34
2023-03-22T18:12:37.762Z,10.82
2023-03-22T18:32:37.770Z,9.92
2023-03-22T18:52:37.591Z,9.67
2023-03-22T19:12:37.489Z,9.23
2023-03-22T19:32:37.640Z,8.73
2023-03-22T19:52:37.672Z,8.30
2023-03-22T20:12:37.718Z,7.88
2023-03-22T20:32:37.665Z,7.56
2023-03-22T20:52:37.652Z,7.44
2023-03-22T21:12:37.669Z,7.56
2023-03-22T21:32:37.481Z,8.19
2023-03-22T21:52:37.673Z,8.60
2023-03-22T22:12:37.678Z,8.19
2023-03-22T22:32:37.523Z,8.01
2023-03-22T22:52:37.527Z,7.80
2023-03-22T23:12:37.471Z,7.50
2023-03-22T23:32:37.517Z,7.27
2023-03-22T23:52:37.513Z,7.06
